Time;durP1;ratioP1;P1;durP2;ratioP2;P2;SDS_P1;SDS_P2;PMS_P1;PMS_P2;Temp;Humidity;BMP_temperature;BMP_pressure;BME280_temperature;BME280_humidity;BME280_pressure;Samples;Min_cycle;Max_cycle;Signal;HPM_P1;HPM_P2
2022/07/22 00:02:18;;;;;;;6.95;3.70;;;;;;;;;;5071775;28;20042;-77
2022/07/22 00:04:44;;;;;;;4.55;4.05;;;;;;;;;;5072556;28;20078;-77
2022/07/22 00:07:11;;;;;;;4.80;4.05;;;;;;;;;;5072673;28;20021;-77
2022/07/22 00:09:37;;;;;;;9.55;3.67;;;;;;;;;;5071200;28;20016;-77
2022/07/22 00:12:03;;;;;;;5.35;4.20;;;;;;;;;;5072254;28;20025;-77
2022/07/22 00:14:30;;;;;;;6.00;4.07;;;;;;;;;;5072445;28;20392;-77
2022/07/22 00:16:56;;;;;;;5.20;4.32;;;;;;;;;;5072438;28;20030;-77
2022/07/22 00:19:24;;;;;;;8.43;4.30;;;;;;;;;;5072343;28;20025;-77
2022/07/22 00:21:51;;;;;;;5.25;4.07;;;;;;;;;;5071174;28;20032;-77
2022/07/22 00:24:18;;;;;;;5.20;3.90;;;;;;;;;;5080508;28;20484;-77
2022/07/22 00:26:44;;;;;;;6.93;4.13;;;;;;;;;;5092280;28;20032;-77
2022/07/22 00:29:10;;;;;;;4.60;4.03;;;;;;;;;;5086459;28;20016;-77
2022/07/22 00:31:37;;;;;;;4.15;3.70;;;;;;;;;;5072308;28;20038;-77
2022/07/22 00:34:03;;;;;;;5.07;4.13;;;;;;;;;;5072443;28;20031;-77
2022/07/22 00:36:30;;;;;;;4.65;3.88;;;;;;;;;;5072209;28;20029;-77
2022/07/22 00:38:56;;;;;;;7.35;4.35;;;;;;;;;;5071935;28;20040;-77
2022/07/22 00:41:23;;;;;;;4.93;3.95;;;;;;;;;;5087528;28;20051;-75
2022/07/22 00:43:58;;;;;;;5.22;4.18;;;;;;;;;;5092316;28;20032;-77
2022/07/22 00:46:24;;;;;;;7.35;4.00;;;;;;;;;;5092461;28;20027;-77
2022/07/22 00:48:51;;;;;;;7.32;4.03;;;;;;;;;;5092327;28;20028;-77
2022/07/22 00:51:18;;;;;;;5.95;4.32;;;;;;;;;;5092529;28;20035;-76
2022/07/22 00:53:45;;;;;;;6.10;4.05;;;;;;;;;;5092599;28;20032;-77
2022/07/22 00:56:11;;;;;;;4.35;3.63;;;;;;;;;;5091662;28;20032;-77
2022/07/22 00:58:38;;;;;;;4.88;4.10;;;;;;;;;;5092110;28;20024;-77
2022/07/22 01:01:04;;;;;;;6.88;4.15;;;;;;;;;;5092160;28;20032;-77
2022/07/22 01:03:31;;;;;;;7.20;3.90;;;;;;;;;;5092057;28;20504;-77
2022/07/22 01:05:57;;;;;;;5.00;4.00;;;;;;;;;;5092468;28;20016;-77
2022/07/22 01:08:23;;;;;;;7.38;4.53;;;;;;;;;;5091800;28;20431;-77
2022/07/22 01:10:50;;;;;;;7.25;4.18;;;;;;;;;;5090645;28;20037;-77
2022/07/22 01:13:17;;;;;;;5.07;3.97;;;;;;;;;;5094297;28;20492;-77
2022/07/22 01:15:43;;;;;;;5.15;4.13;;;;;;;;;;5096347;28;20020;-76
2022/07/22 01:18:09;;;;;;;5.93;3.97;;;;;;;;;;5095974;28;20016;-77
2022/07/22 01:20:36;;;;;;;6.97;3.95;;;;;;;;;;5096138;28;20031;-77
2022/07/22 01:23:03;;;;;;;4.95;4.30;;;;;;;;;;5095961;28;20522;-77
2022/07/22 01:25:29;;;;;;;6.03;3.90;;;;;;;;;;5095655;28;20028;-77
2022/07/22 01:27:55;;;;;;;7.60;4.53;;;;;;;;;;5095892;28;20481;-76
2022/07/22 01:30:22;;;;;;;6.28;4.60;;;;;;;;;;5096165;28;20073;-77
2022/07/22 01:32:48;;;;;;;4.50;4.10;;;;;;;;;;5095678;28;20477;-77
2022/07/22 01:35:14;;;;;;;4.55;4.10;;;;;;;;;;5096003;28;20023;-76
2022/07/22 01:37:41;;;;;;;5.90;4.50;;;;;;;;;;5095176;28;20454;-76
2022/07/22 01:40:07;;;;;;;6.13;4.18;;;;;;;;;;5095276;28;20046;-77
2022/07/22 01:42:33;;;;;;;5.45;4.28;;;;;;;;;;5095914;28;20026;-77
2022/07/22 01:45:00;;;;;;;5.32;4.40;;;;;;;;;;5095596;28;20028;-77
2022/07/22 01:47:26;;;;;;;4.47;3.80;;;;;;;;;;5095461;28;20035;-77
2022/07/22 01:49:52;;;;;;;5.57;4.38;;;;;;;;;;5095847;28;20022;-77
2022/07/22 01:52:19;;;;;;;5.72;4.00;;;;;;;;;;5095037;28;20032;-77
2022/07/22 01:54:45;;;;;;;4.18;3.78;;;;;;;;;;5095247;28;20525;-77
2022/07/22 01:57:11;;;;;;;6.20;4.43;;;;;;;;;;5095606;28;20038;-77
2022/07/22 01:59:38;;;;;;;5.25;4.25;;;;;;;;;;5095099;28;20045;-77
2022/07/22 02:02:04;;;;;;;4.10;3.67;;;;;;;;;;5095074;28;20403;-78
2022/07/22 02:04:30;;;;;;;5.82;4.20;;;;;;;;;;5095579;28;20028;-76
2022/07/22 02:06:57;;;;;;;5.85;4.15;;;;;;;;;;5094723;28;20054;-77
2022/07/22 02:09:23;;;;;;;5.65;3.97;;;;;;;;;;5095301;28;20024;-78
2022/07/22 02:11:49;;;;;;;9.05;4.15;;;;;;;;;;5095127;28;20035;-77
2022/07/22 02:14:15;;;;;;;5.53;4.20;;;;;;;;;;5095317;28;20038;-77
2022/07/22 02:16:42;;;;;;;7.55;4.60;;;;;;;;;;5093763;28;20034;-77
2022/07/22 02:19:08;;;;;;;4.63;4.18;;;;;;;;;;5094862;28;20503;-78
2022/07/22 02:21:34;;;;;;;4.88;4.30;;;;;;;;;;5094547;28;20035;-77
2022/07/22 02:24:01;;;;;;;6.30;4.47;;;;;;;;;;5094103;28;20381;-78
2022/07/22 02:26:27;;;;;;;4.68;4.10;;;;;;;;;;5095003;28;20411;-77
2022/07/22 02:28:53;;;;;;;4.47;3.92;;;;;;;;;;5094953;28;20024;-77
2022/07/22 02:31:20;;;;;;;4.55;4.15;;;;;;;;;;5094909;28;20034;-76
2022/07/22 02:33:49;;;;;;;5.57;4.20;;;;;;;;;;5094569;28;20019;-77
2022/07/22 02:36:16;;;;;;;5.95;4.28;;;;;;;;;;5094358;28;20035;-77
2022/07/22 02:38:42;;;;;;;4.82;4.30;;;;;;;;;;5094322;28;20040;-77
2022/07/22 02:41:08;;;;;;;6.22;4.18;;;;;;;;;;5094305;28;20027;-77
2022/07/22 02:43:35;;;;;;;5.70;4.53;;;;;;;;;;5094338;28;20419;-77
2022/07/22 02:46:01;;;;;;;5.13;4.07;;;;;;;;;;5093308;28;20164;-77
2022/07/22 02:48:27;;;;;;;5.28;4.10;;;;;;;;;;5094540;28;20020;-78
2022/07/22 02:50:54;;;;;;;4.97;4.40;;;;;;;;;;5093880;28;20061;-78
2022/07/22 02:53:20;;;;;;;5.43;4.03;;;;;;;;;;5093319;28;20039;-78
2022/07/22 02:55:46;;;;;;;5.18;4.03;;;;;;;;;;5094254;28;20018;-77
2022/07/22 02:58:13;;;;;;;4.93;4.38;;;;;;;;;;5094378;28;20036;-77
2022/07/22 03:00:39;;;;;;;6.15;4.68;;;;;;;;;;5094163;28;20136;-77
2022/07/22 03:03:05;;;;;;;5.85;4.53;;;;;;;;;;5093977;28;20034;-77
2022/07/22 03:05:32;;;;;;;7.22;4.22;;;;;;;;;;5093659;28;20030;-77
2022/07/22 03:07:58;;;;;;;5.25;4.40;;;;;;;;;;5094186;28;20028;-77
2022/07/22 03:10:25;;;;;;;4.50;4.07;;;;;;;;;;5093880;28;20032;-78
2022/07/22 03:12:51;;;;;;;5.97;4.35;;;;;;;;;;5092701;28;20040;-77
2022/07/22 03:15:17;;;;;;;5.45;4.32;;;;;;;;;;5093771;28;20024;-77
2022/07/22 03:17:44;;;;;;;5.40;4.35;;;;;;;;;;5093620;28;20020;-78
2022/07/22 03:20:10;;;;;;;5.80;4.45;;;;;;;;;;5093205;28;20515;-77
2022/07/22 03:22:37;;;;;;;6.63;4.32;;;;;;;;;;5093600;28;20024;-78
2022/07/22 03:25:04;;;;;;;5.10;4.40;;;;;;;;;;5093654;28;20020;-77
2022/07/22 03:27:30;;;;;;;4.88;3.85;;;;;;;;;;5093594;28;20026;-77
2022/07/22 03:29:56;;;;;;;5.47;4.30;;;;;;;;;;5093579;28;20022;-77
2022/07/22 03:32:23;;;;;;;6.70;4.32;;;;;;;;;;5093432;28;20400;-77
2022/07/22 03:34:49;;;;;;;5.10;4.47;;;;;;;;;;5093155;28;20027;-77
2022/07/22 03:37:15;;;;;;;6.07;4.25;;;;;;;;;;5093483;28;20403;-77
2022/07/22 03:39:42;;;;;;;7.35;4.63;;;;;;;;;;5093004;28;20074;-77
2022/07/22 03:42:08;;;;;;;5.57;4.32;;;;;;;;;;5093267;28;20024;-77
2022/07/22 03:44:34;;;;;;;5.50;4.72;;;;;;;;;;5092064;28;20028;-78
2022/07/22 03:47:01;;;;;;;4.43;4.03;;;;;;;;;;5093184;28;20480;-77
2022/07/22 03:49:29;;;;;;;6.13;4.10;;;;;;;;;;5092774;28;20008;-78
2022/07/22 03:51:55;;;;;;;5.78;4.18;;;;;;;;;;5093231;28;20387;-77
2022/07/22 03:54:22;;;;;;;4.90;4.50;;;;;;;;;;5093261;28;20030;-78
2022/07/22 03:56:48;;;;;;;5.82;4.50;;;;;;;;;;5092939;28;20020;-77
2022/07/22 03:59:15;;;;;;;4.55;4.00;;;;;;;;;;5092964;28;20380;-78
2022/07/22 04:01:42;;;;;;;5.18;4.20;;;;;;;;;;5092909;28;20434;-77
2022/07/22 04:04:08;;;;;;;6.53;4.22;;;;;;;;;;5092867;28;20018;-77
2022/07/22 04:06:35;;;;;;;4.68;4.15;;;;;;;;;;5092856;28;20384;-78
2022/07/22 04:09:01;;;;;;;5.35;4.32;;;;;;;;;;5092753;28;20026;-77
2022/07/22 04:11:27;;;;;;;4.75;4.32;;;;;;;;;;5092916;28;20027;-77
2022/07/22 04:13:54;;;;;;;4.40;4.00;;;;;;;;;;5093157;28;20027;-77
2022/07/22 04:16:20;;;;;;;4.68;4.28;;;;;;;;;;5092797;28;20395;-78
2022/07/22 04:18:46;;;;;;;4.75;4.13;;;;;;;;;;5092467;28;20040;-77
2022/07/22 04:21:13;;;;;;;5.05;4.55;;;;;;;;;;5092569;28;20027;-78
2022/07/22 04:23:39;;;;;;;5.93;4.35;;;;;;;;;;5091349;28;20024;-77
2022/07/22 04:26:06;;;;;;;6.03;4.20;;;;;;;;;;5092607;28;20023;-78
2022/07/22 04:28:35;;;;;;;4.90;4.40;;;;;;;;;;5092830;28;20032;-77
2022/07/22 04:31:05;;;;;;;5.30;4.40;;;;;;;;;;5092889;28;20012;-77
2022/07/22 04:33:31;;;;;;;4.75;4.20;;;;;;;;;;5092047;28;20036;-78
2022/07/22 04:35:58;;;;;;;5.47;4.22;;;;;;;;;;5092552;28;20024;-78
2022/07/22 04:38:24;;;;;;;6.03;4.38;;;;;;;;;;5092502;28;20040;-77
2022/07/22 04:40:50;;;;;;;5.65;5.03;;;;;;;;;;5090756;28;20374;-77
2022/07/22 04:43:16;;;;;;;5.47;4.35;;;;;;;;;;5091119;28;20036;-77
2022/07/22 04:45:43;;;;;;;5.70;4.40;;;;;;;;;;5092193;28;20038;-77
2022/07/22 04:48:09;;;;;;;5.13;4.63;;;;;;;;;;5091329;28;20030;-77
2022/07/22 04:50:38;;;;;;;5.80;4.43;;;;;;;;;;5092312;28;20020;-77
2022/07/22 04:53:05;;;;;;;4.50;4.10;;;;;;;;;;5092267;28;20046;-78
2022/07/22 04:55:31;;;;;;;4.88;4.30;;;;;;;;;;5074307;28;20028;-78
2022/07/22 04:57:57;;;;;;;5.82;4.38;;;;;;;;;;5092140;28;20377;-76
2022/07/22 05:00:24;;;;;;;5.68;4.57;;;;;;;;;;5092030;28;20042;-77
2022/07/22 05:02:51;;;;;;;5.85;4.60;;;;;;;;;;5091653;28;20012;-78
2022/07/22 05:05:17;;;;;;;4.70;4.30;;;;;;;;;;5092869;28;20042;-77
2022/07/22 05:07:43;;;;;;;4.75;4.32;;;;;;;;;;5092136;28;20028;-77
2022/07/22 05:10:10;;;;;;;8.00;4.55;;;;;;;;;;5092382;28;20499;-77
2022/07/22 05:12:36;;;;;;;4.90;4.38;;;;;;;;;;5091962;28;20032;-77
2022/07/22 05:15:03;;;;;;;5.03;4.50;;;;;;;;;;5092074;28;20393;-77
2022/07/22 05:17:29;;;;;;;5.30;4.38;;;;;;;;;;5091698;28;20028;-78
2022/07/22 05:19:56;;;;;;;6.82;4.85;;;;;;;;;;5092062;28;20511;-77
2022/07/22 05:22:22;;;;;;;7.60;4.70;;;;;;;;;;5092054;28;20040;-77
2022/07/22 05:24:48;;;;;;;5.78;4.57;;;;;;;;;;5091774;28;20030;-77
2022/07/22 05:27:15;;;;;;;6.93;4.65;;;;;;;;;;5091923;28;20024;-76
2022/07/22 05:29:41;;;;;;;5.97;4.90;;;;;;;;;;5091708;28;20044;-77
2022/07/22 05:32:07;;;;;;;5.85;4.70;;;;;;;;;;5091866;28;20028;-78
2022/07/22 05:34:34;;;;;;;4.63;4.18;;;;;;;;;;5091855;28;20028;-77
2022/07/22 05:37:00;;;;;;;5.28;4.78;;;;;;;;;;5090621;28;20028;-78
2022/07/22 05:39:26;;;;;;;8.65;4.47;;;;;;;;;;5091530;28;20419;-77
2022/07/22 05:41:53;;;;;;;6.95;4.80;;;;;;;;;;5051538;28;20492;-77
2022/07/22 05:44:19;;;;;;;5.45;4.78;;;;;;;;;;5051222;28;20412;-77
2022/07/22 05:46:45;;;;;;;7.68;4.75;;;;;;;;;;5051706;28;20024;-77
2022/07/22 05:49:11;;;;;;;8.15;4.60;;;;;;;;;;5051735;28;20029;-77
2022/07/22 05:51:38;;;;;;;6.00;4.65;;;;;;;;;;5051870;28;20029;-77
2022/07/22 05:54:04;;;;;;;6.75;4.78;;;;;;;;;;5051838;28;20028;-78
2022/07/22 05:56:30;;;;;;;9.77;4.60;;;;;;;;;;5051920;28;20023;-78
2022/07/22 05:58:57;;;;;;;8.77;4.57;;;;;;;;;;5051185;28;20428;-77
2022/07/22 06:01:23;;;;;;;7.32;4.80;;;;;;;;;;5055302;28;20033;-76
2022/07/22 06:03:50;;;;;;;8.30;5.05;;;;;;;;;;5070440;28;20020;-71
2022/07/22 06:06:16;;;;;;;13.73;6.40;;;;;;;;;;5060775;28;20036;-66
2022/07/22 06:08:42;;;;;;;18.02;7.32;;;;;;;;;;5074176;28;20039;-67
2022/07/22 06:11:09;;;;;;;13.98;6.93;;;;;;;;;;5074527;28;20062;-66
2022/07/22 06:13:35;;;;;;;8.77;6.68;;;;;;;;;;5074176;28;20024;-66
2022/07/22 06:16:01;;;;;;;11.82;7.15;;;;;;;;;;5073913;28;20029;-66
2022/07/22 06:18:28;;;;;;;13.43;6.90;;;;;;;;;;5074501;28;20024;-66
2022/07/22 06:20:54;;;;;;;11.38;6.68;;;;;;;;;;5074444;28;20515;-66
2022/07/22 06:23:20;;;;;;;9.20;6.75;;;;;;;;;;5074876;28;20035;-66
2022/07/22 06:25:47;;;;;;;9.75;6.95;;;;;;;;;;5077433;28;20029;-66
2022/07/22 06:28:13;;;;;;;9.63;6.47;;;;;;;;;;5073899;28;20024;-66
2022/07/22 06:30:40;;;;;;;11.32;6.97;;;;;;;;;;5074373;28;20020;-66
2022/07/22 06:33:06;;;;;;;12.63;7.15;;;;;;;;;;5071192;28;20028;-67
2022/07/22 06:35:33;;;;;;;10.95;6.90;;;;;;;;;;5081694;28;20024;-66
2022/07/22 06:37:59;;;;;;;14.07;6.85;;;;;;;;;;5071725;28;20481;-67
2022/07/22 06:40:25;;;;;;;16.05;8.20;;;;;;;;;;5080335;28;20044;-67
2022/07/22 06:42:51;;;;;;;11.52;7.63;;;;;;;;;;5072504;28;20035;-67
2022/07/22 06:45:18;;;;;;;17.85;7.30;;;;;;;;;;5080905;28;20028;-66
2022/07/22 06:47:44;;;;;;;17.48;7.75;;;;;;;;;;5084578;28;20387;-66
2022/07/22 06:50:11;;;;;;;21.83;7.95;;;;;;;;;;5075908;28;20059;-67
2022/07/22 06:52:40;;;;;;;20.35;7.50;;;;;;;;;;5072718;28;20028;-67
2022/07/22 06:55:07;;;;;;;15.95;7.93;;;;;;;;;;5072844;28;20515;-66
2022/07/22 06:57:34;;;;;;;10.10;7.25;;;;;;;;;;5072247;28;20546;-67
2022/07/22 07:00:00;;;;;;;7.70;6.90;;;;;;;;;;5071783;28;20542;-67
2022/07/22 07:02:26;;;;;;;16.17;7.47;;;;;;;;;;5071625;28;20027;-67
2022/07/22 07:04:53;;;;;;;10.48;6.90;;;;;;;;;;5071735;28;20027;-66
2022/07/22 07:07:19;;;;;;;11.18;6.93;;;;;;;;;;5072813;28;20039;-67
2022/07/22 07:09:46;;;;;;;9.70;6.55;;;;;;;;;;5072569;28;20032;-66
2022/07/22 07:12:12;;;;;;;11.98;7.10;;;;;;;;;;5071632;28;20025;-66
2022/07/22 07:14:38;;;;;;;8.35;6.88;;;;;;;;;;5071893;28;20031;-67
2022/07/22 07:17:04;;;;;;;11.75;6.65;;;;;;;;;;5070512;28;20427;-66
2022/07/22 07:19:31;;;;;;;12.02;7.25;;;;;;;;;;5072106;28;20388;-67
2022/07/22 07:21:57;;;;;;;9.77;6.47;;;;;;;;;;5072894;28;20497;-67
2022/07/22 07:24:23;;;;;;;9.00;6.55;;;;;;;;;;5082260;28;20032;-66
2022/07/22 07:26:50;;;;;;;8.30;6.80;;;;;;;;;;5089995;28;20021;-66
2022/07/22 07:29:16;;;;;;;9.27;6.70;;;;;;;;;;5073016;28;20040;-67
2022/07/22 07:31:42;;;;;;;14.43;6.75;;;;;;;;;;5071783;28;20481;-67
2022/07/22 07:34:09;;;;;;;7.30;6.55;;;;;;;;;;5072752;28;20388;-67
2022/07/22 07:36:35;;;;;;;8.70;6.53;;;;;;;;;;5072250;28;20020;-67
2022/07/22 07:39:01;;;;;;;9.25;6.75;;;;;;;;;;5072664;28;20406;-67
2022/07/22 07:41:28;;;;;;;9.32;6.68;;;;;;;;;;5084539;28;20029;-68
2022/07/22 07:43:54;;;;;;;14.98;7.13;;;;;;;;;;5072694;28;20047;-67
2022/07/22 07:46:20;;;;;;;10.18;6.05;;;;;;;;;;5071742;28;20016;-67
2022/07/22 07:48:48;;;;;;;10.57;6.65;;;;;;;;;;5085892;28;20610;-67
2022/07/22 07:51:14;;;;;;;9.32;6.80;;;;;;;;;;5072558;28;20507;-67
2022/07/22 07:53:40;;;;;;;11.25;6.60;;;;;;;;;;5072580;28;20016;-67
2022/07/22 07:56:07;;;;;;;13.10;5.57;;;;;;;;;;5072238;28;20021;-67
2022/07/22 07:58:33;;;;;;;8.10;5.80;;;;;;;;;;5072680;28;20511;-67
2022/07/22 08:00:59;;;;;;;8.90;6.35;;;;;;;;;;5071911;28;20016;-67
2022/07/22 08:03:26;;;;;;;7.15;6.25;;;;;;;;;;5071980;28;20032;-67
2022/07/22 08:05:52;;;;;;;296.80;26.30;;;;;;;;;;5072158;28;20023;-68
2022/07/22 08:08:18;;;;;;;9.48;6.00;;;;;;;;;;5073041;28;20024;-69
2022/07/22 08:10:45;;;;;;;8.18;5.70;;;;;;;;;;5070842;28;20024;-69
2022/07/22 08:13:11;;;;;;;11.65;6.10;;;;;;;;;;5070550;28;20040;-69
2022/07/22 08:15:37;;;;;;;13.35;6.50;;;;;;;;;;5072685;28;20021;-69
2022/07/22 08:18:04;;;;;;;10.40;6.00;;;;;;;;;;5072710;28;20027;-69
2022/07/22 08:20:31;;;;;;;10.38;7.28;;;;;;;;;;5072111;28;20023;-69
2022/07/22 08:22:57;;;;;;;13.23;6.95;;;;;;;;;;5069764;28;20032;-69
2022/07/22 08:25:23;;;;;;;17.38;6.60;;;;;;;;;;5071845;28;20015;-69
2022/07/22 08:27:50;;;;;;;14.02;7.25;;;;;;;;;;5070340;28;20024;-69
2022/07/22 08:30:18;;;;;;;9.05;6.80;;;;;;;;;;5073226;28;20042;-69
2022/07/22 08:32:44;;;;;;;10.15;7.28;;;;;;;;;;5070403;28;20476;-69
2022/07/22 08:35:11;;;;;;;12.65;7.32;;;;;;;;;;5070215;28;20020;-69
2022/07/22 08:37:37;;;;;;;10.57;7.57;;;;;;;;;;5070526;28;20023;-69
2022/07/22 08:40:05;;;;;;;12.68;7.40;;;;;;;;;;5072038;28;20043;-70
2022/07/22 08:42:31;;;;;;;9.27;7.10;;;;;;;;;;5070540;28;20068;-69
2022/07/22 08:44:59;;;;;;;12.00;7.38;;;;;;;;;;5073384;28;20040;-69
2022/07/22 08:47:25;;;;;;;11.45;7.32;;;;;;;;;;5071619;28;20021;-69
2022/07/22 08:49:51;;;;;;;12.98;7.13;;;;;;;;;;5074497;28;20029;-69
2022/07/22 08:52:18;;;;;;;9.27;6.95;;;;;;;;;;5069680;28;20032;-69
2022/07/22 08:54:44;;;;;;;9.60;7.05;;;;;;;;;;5070048;28;20023;-69
2022/07/22 08:57:10;;;;;;;12.75;6.93;;;;;;;;;;5074519;28;20021;-68
2022/07/22 08:59:53;;;;;;;9.85;6.50;;;;;;;;;;5083496;28;20036;-69
2022/07/22 09:02:20;;;;;;;10.73;7.32;;;;;;;;;;5051219;28;20029;-69
2022/07/22 09:04:54;;;;;;;13.23;7.40;;;;;;;;;;5058837;28;20023;-69
2022/07/22 09:07:28;;;;;;;6.97;5.57;;;;;;;;;;5070901;28;20028;-69
2022/07/22 09:09:55;;;;;;;9.15;6.55;;;;;;;;;;5069853;28;20024;-69
2022/07/22 09:12:22;;;;;;;11.25;7.00;;;;;;;;;;5070514;28;20042;-69
2022/07/22 09:14:52;;;;;;;10.20;6.72;;;;;;;;;;5070721;28;20419;-69
2022/07/22 09:17:35;;;;;;;9.13;7.22;;;;;;;;;;5071032;28;20032;-69
2022/07/22 09:20:03;;;;;;;6.95;6.25;;;;;;;;;;5070150;28;20036;-68
2022/07/22 09:22:40;;;;;;;7.45;6.10;;;;;;;;;;5070379;28;20035;-69
2022/07/22 09:25:21;;;;;;;9.73;6.30;;;;;;;;;;5085716;28;20024;-69
2022/07/22 09:27:48;;;;;;;8.10;6.40;;;;;;;;;;5088451;28;20404;-69
2022/07/22 09:30:16;;;;;;;10.30;6.97;;;;;;;;;;5070751;28;20064;-69
2022/07/22 09:32:43;;;;;;;10.02;6.45;;;;;;;;;;5070949;28;20041;-69
2022/07/22 09:35:10;;;;;;;11.35;6.47;;;;;;;;;;5074930;28;20031;-69
2022/07/22 09:37:48;;;;;;;7.40;6.43;;;;;;;;;;5073988;28;20035;-69
2022/07/22 09:40:14;;;;;;;7.95;6.50;;;;;;;;;;5076088;28;20028;-69
2022/07/22 09:42:44;;;;;;;7.82;6.50;;;;;;;;;;5074719;28;20033;-69
2022/07/22 09:45:11;;;;;;;9.68;6.60;;;;;;;;;;5072152;28;20015;-69
2022/07/22 09:47:37;;;;;;;12.10;7.25;;;;;;;;;;5074842;28;20039;-69
2022/07/22 09:50:04;;;;;;;9.35;6.38;;;;;;;;;;5074396;28;20507;-69
2022/07/22 09:52:30;;;;;;;8.48;6.60;;;;;;;;;;5073981;28;20029;-70
2022/07/22 09:54:57;;;;;;;17.13;6.65;;;;;;;;;;5074515;28;20020;-69
2022/07/22 09:57:23;;;;;;;12.63;6.28;;;;;;;;;;5074389;28;20460;-70
2022/07/22 09:59:50;;;;;;;7.82;5.90;;;;;;;;;;5079785;28;20024;-69
2022/07/22 10:02:21;;;;;;;14.73;6.70;;;;;;;;;;5074029;28;20380;-69
2022/07/22 10:04:48;;;;;;;8.20;6.35;;;;;;;;;;5072448;28;20021;-69
2022/07/22 10:07:15;;;;;;;13.30;6.82;;;;;;;;;;5073658;28;20029;-70
2022/07/22 10:09:43;;;;;;;8.80;6.45;;;;;;;;;;5073480;28;20024;-69
2022/07/22 10:12:11;;;;;;;11.70;5.68;;;;;;;;;;5067160;28;20032;-70
2022/07/22 10:14:37;;;;;;;10.65;5.60;;;;;;;;;;5070461;28;20029;-70
2022/07/22 10:17:04;;;;;;;7.85;5.97;;;;;;;;;;5072718;28;20020;-70
2022/07/22 10:19:30;;;;;;;10.98;6.30;;;;;;;;;;5073551;28;20081;-69
2022/07/22 10:21:57;;;;;;;9.65;6.22;;;;;;;;;;5073183;28;20031;-70
2022/07/22 10:24:23;;;;;;;6.85;6.00;;;;;;;;;;5073472;28;20481;-70
2022/07/22 10:26:51;;;;;;;7.00;6.10;;;;;;;;;;5073680;28;20031;-69
2022/07/22 10:29:28;;;;;;;11.90;5.32;;;;;;;;;;5073105;28;20089;-70
2022/07/22 10:32:12;;;;;;;10.20;6.30;;;;;;;;;;5073143;28;20086;-70
2022/07/22 10:34:39;;;;;;;10.10;5.50;;;;;;;;;;5073322;28;20021;-70
2022/07/22 10:37:25;;;;;;;8.95;4.82;;;;;;;;;;5074330;28;20045;-69
2022/07/22 10:40:24;;;;;;;9.13;5.47;;;;;;;;;;5074051;28;20058;-71
2022/07/22 10:43:08;;;;;;;9.13;5.47;;;;;;;;;;5008506;28;20060;-69
2022/07/22 10:45:36;;;;;;;8.10;5.35;;;;;;;;;;5009220;28;20565;-70
2022/07/22 10:48:05;;;;;;;8.75;6.05;;;;;;;;;;4995514;28;20034;-70
2022/07/22 10:50:37;;;;;;;9.37;5.13;;;;;;;;;;5011579;28;20026;-70
2022/07/22 10:53:29;;;;;;;9.90;6.00;;;;;;;;;;5011981;28;20518;-70
2022/07/22 10:55:59;;;;;;;8.70;5.28;;;;;;;;;;4953521;29;20059;-70
2022/07/22 10:58:34;;;;;;;7.53;5.43;;;;;;;;;;4953029;29;20050;-71
2022/07/22 11:01:02;;;;;;;8.48;5.68;;;;;;;;;;4953511;29;20035;-70
2022/07/22 11:03:29;;;;;;;8.68;6.05;;;;;;;;;;4952879;29;20031;-70
2022/07/22 11:05:56;;;;;;;8.23;5.93;;;;;;;;;;4953566;29;20403;-70
2022/07/22 11:08:23;;;;;;;9.77;5.97;;;;;;;;;;4953233;29;20027;-70
2022/07/22 11:10:50;;;;;;;9.88;5.70;;;;;;;;;;4953304;29;20031;-70
2022/07/22 11:13:37;;;;;;;8.80;5.35;;;;;;;;;;4952619;29;20405;-70
2022/07/22 11:16:15;;;;;;;11.18;6.38;;;;;;;;;;4953250;29;20035;-71
2022/07/22 11:18:50;;;;;;;8.55;5.40;;;;;;;;;;4971678;28;20038;-71
2022/07/22 11:21:17;;;;;;;6.93;5.53;;;;;;;;;;4995130;28;20038;-70
2022/07/22 11:23:44;;;;;;;17.30;6.75;;;;;;;;;;4998635;28;20017;-70
2022/07/22 11:26:13;;;;;;;9.05;6.65;;;;;;;;;;5031070;28;20041;-71
2022/07/22 11:28:40;;;;;;;6.07;5.47;;;;;;;;;;5029699;28;20025;-71
2022/07/22 11:31:08;;;;;;;7.75;5.68;;;;;;;;;;5011589;28;20038;-71
2022/07/22 11:33:34;;;;;;;9.43;6.10;;;;;;;;;;5063400;28;20041;-70
2022/07/22 11:36:01;;;;;;;9.38;5.95;;;;;;;;;;5072861;28;20392;-70
2022/07/22 11:38:40;;;;;;;6.70;5.45;;;;;;;;;;5071678;28;20491;-71
2022/07/22 11:41:06;;;;;;;9.15;6.05;;;;;;;;;;5074744;28;20033;-70
2022/07/22 11:43:39;;;;;;;10.98;6.32;;;;;;;;;;5072139;28;20035;-70
2022/07/22 11:46:05;;;;;;;11.57;5.50;;;;;;;;;;5071758;28;20037;-70
2022/07/22 11:48:32;;;;;;;10.93;6.10;;;;;;;;;;5071855;28;20024;-70
2022/07/22 11:51:02;;;;;;;9.77;6.13;;;;;;;;;;5072872;28;20032;-70
2022/07/22 11:53:28;;;;;;;7.93;5.65;;;;;;;;;;5072125;28;20028;-71
2022/07/22 11:55:58;;;;;;;12.15;6.30;;;;;;;;;;5072672;28;20032;-70
2022/07/22 11:58:25;;;;;;;;;;;;;;;;;;5071922;28;20020;-70
2022/07/22 12:00:51;;;;;;;11.10;6.10;;;;;;;;;;5072797;28;19904;-70
2022/07/22 12:03:17;;;;;;;12.52;5.95;;;;;;;;;;5072746;28;20505;-69
2022/07/22 12:05:44;;;;;;;12.32;6.20;;;;;;;;;;5070155;28;20477;-70
2022/07/22 12:08:10;;;;;;;9.63;6.15;;;;;;;;;;5070660;28;20412;-70
2022/07/22 12:10:36;;;;;;;7.88;6.07;;;;;;;;;;5071351;28;20027;-70
2022/07/22 12:13:02;;;;;;;8.60;6.07;;;;;;;;;;5076952;28;20116;-70
2022/07/22 12:15:29;;;;;;;9.15;6.60;;;;;;;;;;5078690;28;20081;-71
2022/07/22 12:18:14;;;;;;;9.55;6.43;;;;;;;;;;5071513;28;20485;-71
2022/07/22 12:20:44;;;;;;;15.50;7.32;;;;;;;;;;5071060;28;20037;-71
2022/07/22 12:23:11;;;;;;;11.68;6.85;;;;;;;;;;5091180;28;20028;-71
2022/07/22 12:25:57;;;;;;;12.73;6.60;;;;;;;;;;5085913;28;20020;-72
2022/07/22 12:28:24;;;;;;;10.80;6.95;;;;;;;;;;5074355;28;20050;-72
2022/07/22 12:30:51;;;;;;;10.77;6.72;;;;;;;;;;5070914;28;20086;-72
2022/07/22 12:33:19;;;;;;;10.38;6.85;;;;;;;;;;5070024;28;20028;-72
2022/07/22 12:35:59;;;;;;;14.50;6.57;;;;;;;;;;5075187;28;20039;-72
2022/07/22 12:38:25;;;;;;;8.38;6.20;;;;;;;;;;5071608;28;20054;-71
2022/07/22 12:40:52;;;;;;;12.27;6.50;;;;;;;;;;5081060;28;20045;-72
2022/07/22 12:43:24;;;;;;;7.63;6.30;;;;;;;;;;5070579;28;20024;-71
2022/07/22 12:45:50;;;;;;;10.80;6.40;;;;;;;;;;5066643;28;20033;-72
2022/07/22 12:48:17;;;;;;;7.90;6.20;;;;;;;;;;5073540;28;20065;-72
2022/07/22 12:50:55;;;;;;;10.18;7.28;;;;;;;;;;5089366;28;20661;-72
2022/07/22 12:53:22;;;;;;;8.40;6.80;;;;;;;;;;5061084;28;20037;-80
2022/07/22 12:55:55;;;;;;;9.55;7.47;;;;;;;;;;5070595;28;20047;-80
2022/07/22 12:58:22;;;;;;;14.73;6.55;;;;;;;;;;5082364;28;20691;-80
2022/07/22 13:00:50;;;;;;;9.32;6.90;;;;;;;;;;5071209;28;20066;-80
2022/07/22 13:03:20;;;;;;;8.77;6.90;;;;;;;;;;5075998;28;20036;-80
2022/07/22 13:05:50;;;;;;;13.40;7.60;;;;;;;;;;5072892;28;20043;-80
2022/07/22 13:08:16;;;;;;;;;;;;;;;;;;5071271;28;20043;-79
2022/07/22 13:10:42;;;;;;;10.27;7.53;;;;;;;;;;5074526;28;19910;-80
2022/07/22 13:13:09;;;;;;;8.43;7.22;;;;;;;;;;5075443;28;20045;-80
2022/07/22 13:15:35;;;;;;;10.95;6.97;;;;;;;;;;5074271;28;20020;-80
2022/07/22 13:18:01;;;;;;;8.48;6.75;;;;;;;;;;5072801;28;20036;-80
2022/07/22 13:20:28;;;;;;;10.48;6.93;;;;;;;;;;5075228;28;20025;-79
2022/07/22 13:22:54;;;;;;;14.65;7.20;;;;;;;;;;5074765;28;20027;-80
2022/07/22 13:25:20;;;;;;;10.05;7.28;;;;;;;;;;5085256;28;20035;-80
2022/07/22 13:27:47;;;;;;;13.10;7.20;;;;;;;;;;5074624;28;20037;-80
2022/07/22 13:30:13;;;;;;;11.13;6.68;;;;;;;;;;5073174;28;20028;-80
2022/07/22 13:32:39;;;;;;;9.25;5.97;;;;;;;;;;5075061;28;20028;-80
2022/07/22 13:35:06;;;;;;;7.28;5.45;;;;;;;;;;5074101;28;20040;-80
2022/07/22 13:37:34;;;;;;;9.57;5.35;;;;;;;;;;5074736;28;20481;-79
2022/07/22 13:40:00;;;;;;;8.50;5.03;;;;;;;;;;5078462;28;20043;-80
2022/07/22 13:42:27;;;;;;;7.55;5.50;;;;;;;;;;5095022;28;20028;-79
2022/07/22 13:44:54;;;;;;;7.00;5.15;;;;;;;;;;5094514;28;20027;-79
2022/07/22 13:47:20;;;;;;;10.30;5.13;;;;;;;;;;5080280;28;20020;-80
2022/07/22 13:49:47;;;;;;;7.00;5.07;;;;;;;;;;5073492;28;20031;-81
2022/07/22 13:52:13;;;;;;;7.38;5.22;;;;;;;;;;5073834;28;20027;-80
2022/07/22 13:54:40;;;;;;;6.40;5.10;;;;;;;;;;5074213;28;20093;-80
2022/07/22 13:57:06;;;;;;;8.20;5.30;;;;;;;;;;5073968;28;20062;-78
2022/07/22 13:59:33;;;;;;;12.25;5.68;;;;;;;;;;5073913;28;20037;-79
2022/07/22 14:01:59;;;;;;;9.25;5.22;;;;;;;;;;5074574;28;20074;-79
2022/07/22 14:04:26;;;;;;;7.95;5.00;;;;;;;;;;5074120;28;20013;-78
2022/07/22 14:06:52;;;;;;;9.13;5.20;;;;;;;;;;5073601;28;20023;-78
2022/07/22 14:09:19;;;;;;;6.53;5.15;;;;;;;;;;5074024;28;20546;-78
2022/07/22 14:11:45;;;;;;;9.27;5.30;;;;;;;;;;5073709;28;20031;-78
2022/07/22 14:14:12;;;;;;;7.97;5.47;;;;;;;;;;5073843;28;20394;-78
2022/07/22 14:16:39;;;;;;;6.57;5.25;;;;;;;;;;5072702;28;20028;-78
2022/07/22 14:19:07;;;;;;;8.98;5.05;;;;;;;;;;5074061;28;20024;-78
2022/07/22 14:21:33;;;;;;;9.05;5.40;;;;;;;;;;5071518;28;20481;-78
2022/07/22 14:24:00;;;;;;;8.60;5.38;;;;;;;;;;5079628;28;20473;-79
2022/07/22 14:26:26;;;;;;;8.75;5.20;;;;;;;;;;5093859;28;20043;-78
2022/07/22 14:28:53;;;;;;;10.30;5.60;;;;;;;;;;5081437;28;20028;-78
2022/07/22 14:31:19;;;;;;;10.13;5.65;;;;;;;;;;5074109;28;20033;-78
2022/07/22 14:33:46;;;;;;;8.50;5.43;;;;;;;;;;5073289;28;20031;-75
2022/07/22 14:36:13;;;;;;;10.50;5.65;;;;;;;;;;5073421;28;20021;-76
2022/07/22 14:38:39;;;;;;;12.82;5.50;;;;;;;;;;5072841;28;20062;-78
2022/07/22 14:41:07;;;;;;;7.55;5.55;;;;;;;;;;5073302;28;20481;-76
2022/07/22 14:43:33;;;;;;;9.07;5.65;;;;;;;;;;5072647;28;20507;-80